sensor_id;sensor_type;location;lat;lon;timestamp;pressure;altitude;pressure_sealevel;temperature;humidity
11345;BME280;5727;42.600;23.028;2023-07-24T00:02:21;93948.28;;;21.13;100.00
11345;BME280;5727;42.600;23.028;2023-07-24T00:04:48;93940.31;;;21.13;100.00
11345;BME280;5727;42.600;23.028;2023-07-24T00:07:16;93936.91;;;21.09;100.00
11345;BME280;5727;42.600;23.028;2023-07-24T00:09:43;93938.41;;;21.10;100.00
11345;BME280;5727;42.600;23.028;2023-07-24T00:12:09;93941.84;;;21.04;100.00
11345;BME280;5727;42.600;23.028;2023-07-24T00:14:36;93941.84;;;20.96;100.00
11345;BME280;5727;42.600;23.028;2023-07-24T00:17:03;93943.00;;;20.92;100.00
11345;BME280;5727;42.600;23.028;2023-07-24T00:19:30;93950.63;;;20.83;100.00
11345;BME280;5727;42.600;23.028;2023-07-24T00:21:57;93944.19;;;20.70;100.00
11345;BME280;5727;42.600;23.028;2023-07-24T00:24:25;93942.28;;;20.74;100.00
11345;BME280;5727;42.600;23.028;2023-07-24T00:26:51;93940.78;;;20.76;100.00
11345;BME280;5727;42.600;23.028;2023-07-24T00:29:18;93934.28;;;20.81;100.00
11345;BME280;5727;42.600;23.028;2023-07-24T00:31:45;93931.63;;;20.81;100.00
11345;BME280;5727;42.600;23.028;2023-07-24T00:34:11;93937.69;;;20.85;100.00
11345;BME280;5727;42.600;23.028;2023-07-24T00:36:38;93934.25;;;20.84;100.00
11345;BME280;5727;42.600;23.028;2023-07-24T00:39:05;93927.44;;;20.73;100.00
11345;BME280;5727;42.600;23.028;2023-07-24T00:41:33;93938.09;;;20.66;100.00
11345;BME280;5727;42.600;23.028;2023-07-24T00:44:00;93933.19;;;20.57;100.00
11345;BME280;5727;42.600;23.028;2023-07-24T00:46:27;93925.97;;;20.51;100.00
11345;BME280;5727;42.600;23.028;2023-07-24T00:48:57;93933.19;;;20.57;100.00
11345;BME280;5727;42.600;23.028;2023-07-24T00:51:25;93930.91;;;20.59;100.00
11345;BME280;5727;42.600;23.028;2023-07-24T00:53:54;93922.16;;;20.59;100.00
11345;BME280;5727;42.600;23.028;2023-07-24T00:56:21;93924.44;;;20.60;100.00
11345;BME280;5727;42.600;23.028;2023-07-24T00:58:49;93919.88;;;20.61;100.00
11345;BME280;5727;42.600;23.028;2023-07-24T01:01:16;93913.78;;;20.60;100.00
11345;BME280;5727;42.600;23.028;2023-07-24T01:03:43;93909.97;;;20.54;100.00
11345;BME280;5727;42.600;23.028;2023-07-24T01:06:10;93908.09;;;20.51;100.00
11345;BME280;5727;42.600;23.028;2023-07-24T01:08:37;93902.78;;;20.48;100.00
11345;BME280;5727;42.600;23.028;2023-07-24T01:11:15;93908.09;;;20.41;100.00
11345;BME280;5727;42.600;23.028;2023-07-24T01:13:50;93900.13;;;20.37;100.00
11345;BME280;5727;42.600;23.028;2023-07-24T01:16:23;93901.66;;;20.24;100.00
11345;BME280;5727;42.600;23.028;2023-07-24T01:18:54;93912.63;;;20.16;100.00
11345;BME280;5727;42.600;23.028;2023-07-24T01:21:29;93916.09;;;20.20;100.00
11345;BME280;5727;42.600;23.028;2023-07-24T01:24:06;93919.09;;;20.11;100.00
11345;BME280;5727;42.600;23.028;2023-07-24T01:26:37;93915.69;;;20.11;100.00
11345;BME280;5727;42.600;23.028;2023-07-24T01:29:04;93920.22;;;20.14;100.00
11345;BME280;5727;42.600;23.028;2023-07-24T01:31:31;93917.19;;;20.12;100.00
11345;BME280;5727;42.600;23.028;2023-07-24T01:33:58;93915.28;;;20.12;100.00
11345;BME280;5727;42.600;23.028;2023-07-24T01:36:24;93912.63;;;20.12;100.00
11345;BME280;5727;42.600;23.028;2023-07-24T01:38:51;93916.44;;;20.15;100.00
11345;BME280;5727;42.600;23.028;2023-07-24T01:41:18;93913.78;;;20.11;100.00
11345;BME280;5727;42.600;23.028;2023-07-24T01:43:47;93911.50;;;20.09;100.00
11345;BME280;5727;42.600;23.028;2023-07-24T01:46:13;93903.91;;;20.08;100.00
11345;BME280;5727;42.600;23.028;2023-07-24T01:48:40;93908.84;;;20.06;100.00
11345;BME280;5727;42.600;23.028;2023-07-24T01:51:07;93907.34;;;20.01;100.00
11345;BME280;5727;42.600;23.028;2023-07-24T01:53:34;93915.66;;;20.00;100.00
11345;BME280;5727;42.600;23.028;2023-07-24T01:56:00;93923.25;;;19.84;100.00
11345;BME280;5727;42.600;23.028;2023-07-24T01:58:27;93924.72;;;19.57;100.00
11345;BME280;5727;42.600;23.028;2023-07-24T02:00:56;93928.38;;;19.24;100.00
11345;BME280;5727;42.600;23.028;2023-07-24T02:03:23;93924.53;;;19.14;100.00
11345;BME280;5727;42.600;23.028;2023-07-24T02:05:50;93928.94;;;18.82;100.00
11345;BME280;5727;42.600;23.028;2023-07-24T02:08:17;93923.97;;;18.74;100.00
11345;BME280;5727;42.600;23.028;2023-07-24T02:10:43;93924.03;;;18.88;100.00
11345;BME280;5727;42.600;23.028;2023-07-24T02:13:10;93913.81;;;18.90;100.00
11345;BME280;5727;42.600;23.028;2023-07-24T02:15:37;93910.44;;;19.00;100.00
11345;BME280;5727;42.600;23.028;2023-07-24T02:18:06;93908.94;;;19.02;100.00
11345;BME280;5727;42.600;23.028;2023-07-24T02:20:33;93905.13;;;19.00;100.00
11345;BME280;5727;42.600;23.028;2023-07-24T02:23:00;93902.84;;;19.02;100.00
11345;BME280;5727;42.600;23.028;2023-07-24T02:25:26;93903.22;;;18.97;100.00
11345;BME280;5727;42.600;23.028;2023-07-24T02:27:53;93911.06;;;18.69;100.00
11345;BME280;5727;42.600;23.028;2023-07-24T02:30:20;93916.00;;;18.77;100.00
11345;BME280;5727;42.600;23.028;2023-07-24T02:32:46;93919.47;;;18.85;100.00
11345;BME280;5727;42.600;23.028;2023-07-24T02:35:15;93910.00;;;18.91;100.00
11345;BME280;5727;42.600;23.028;2023-07-24T02:37:43;93910.78;;;18.88;100.00
11345;BME280;5727;42.600;23.028;2023-07-24T02:40:11;93911.56;;;18.92;100.00
11345;BME280;5727;42.600;23.028;2023-07-24T02:42:38;93914.63;;;18.97;100.00
11345;BME280;5727;42.600;23.028;2023-07-24T02:45:05;93907.41;;;19.01;100.00
11345;BME280;5727;42.600;23.028;2023-07-24T02:47:36;93907.44;;;19.08;100.00
11345;BME280;5727;42.600;23.028;2023-07-24T02:50:03;93901.75;;;19.10;100.00
11345;BME280;5727;42.600;23.028;2023-07-24T02:52:31;93907.06;;;19.10;100.00
11345;BME280;5727;42.600;23.028;2023-07-24T02:54:58;93905.94;;;19.11;100.00
11345;BME280;5727;42.600;23.028;2023-07-24T02:57:25;93907.47;;;19.12;100.00
11345;BME280;5727;42.600;23.028;2023-07-24T02:59:51;93910.50;;;19.10;100.00
11345;BME280;5727;42.600;23.028;2023-07-24T03:02:18;93912.75;;;19.12;100.00
11345;BME280;5727;42.600;23.028;2023-07-24T03:04:45;93909.00;;;19.13;100.00
11345;BME280;5727;42.600;23.028;2023-07-24T03:07:12;93897.59;;;19.16;100.00
11345;BME280;5727;42.600;23.028;2023-07-24T03:09:40;93896.84;;;19.15;100.00
11345;BME280;5727;42.600;23.028;2023-07-24T03:12:07;93899.53;;;19.19;100.00
11345;BME280;5727;42.600;23.028;2023-07-24T03:14:34;93897.22;;;19.21;100.00
11345;BME280;5727;42.600;23.028;2023-07-24T03:17:00;93899.53;;;19.23;100.00
11345;BME280;5727;42.600;23.028;2023-07-24T03:19:27;93899.88;;;19.21;100.00
11345;BME280;5727;42.600;23.028;2023-07-24T03:21:54;93893.44;;;19.18;100.00
11345;BME280;5727;42.600;23.028;2023-07-24T03:24:20;93905.19;;;19.17;100.00
11345;BME280;5727;42.600;23.028;2023-07-24T03:26:49;93911.66;;;19.16;100.00
11345;BME280;5727;42.600;23.028;2023-07-24T03:29:15;93904.84;;;19.19;100.00
11345;BME280;5727;42.600;23.028;2023-07-24T03:31:42;93907.84;;;19.14;100.00
11345;BME280;5727;42.600;23.028;2023-07-24T03:34:09;93907.84;;;19.10;100.00
11345;BME280;5727;42.600;23.028;2023-07-24T03:36:35;93909.22;;;18.83;100.00
11345;BME280;5727;42.600;23.028;2023-07-24T03:39:06;93912.91;;;18.14;100.00
11345;BME280;5727;42.600;23.028;2023-07-24T03:41:33;93915.41;;;17.96;100.00
11345;BME280;5727;42.600;23.028;2023-07-24T03:44:01;93911.31;;;17.62;100.00
11345;BME280;5727;42.600;23.028;2023-07-24T03:46:28;93917.81;;;17.35;100.00
11345;BME280;5727;42.600;23.028;2023-07-24T03:48:54;93902.91;;;17.53;100.00
11345;BME280;5727;42.600;23.028;2023-07-24T03:51:21;93912.16;;;17.73;100.00
11345;BME280;5727;42.600;23.028;2023-07-24T03:53:48;93913.00;;;17.81;100.00
11345;BME280;5727;42.600;23.028;2023-07-24T03:56:15;93912.25;;;17.80;100.00
11345;BME280;5727;42.600;23.028;2023-07-24T03:58:41;93919.09;;;17.85;100.00
11345;BME280;5727;42.600;23.028;2023-07-24T04:01:10;93910.84;;;17.93;100.00
11345;BME280;5727;42.600;23.028;2023-07-24T04:03:36;93915.31;;;17.82;100.00
11345;BME280;5727;42.600;23.028;2023-07-24T04:06:03;93906.38;;;18.04;100.00
11345;BME280;5727;42.600;23.028;2023-07-24T04:08:30;93906.13;;;18.16;100.00
11345;BME280;5727;42.600;23.028;2023-07-24T04:10:57;93908.13;;;18.30;100.00
11345;BME280;5727;42.600;23.028;2023-07-24T04:13:23;93912.34;;;18.38;100.00
11345;BME280;5727;42.600;23.028;2023-07-24T04:15:50;93920.31;;;18.38;100.00
11345;BME280;5727;42.600;23.028;2023-07-24T04:18:18;93913.19;;;18.46;100.00
11345;BME280;5727;42.600;23.028;2023-07-24T04:20:45;93922.53;;;18.33;100.00
11345;BME280;5727;42.600;23.028;2023-07-24T04:23:12;93922.44;;;18.22;100.00
11345;BME280;5727;42.600;23.028;2023-07-24T04:25:38;93921.25;;;18.16;100.00
11345;BME280;5727;42.600;23.028;2023-07-24T04:28:05;93927.41;;;18.27;100.00
11345;BME280;5727;42.600;23.028;2023-07-24T04:30:32;93927.09;;;18.36;100.00
11345;BME280;5727;42.600;23.028;2023-07-24T04:32:59;93921.13;;;18.46;100.00
11345;BME280;5727;42.600;23.028;2023-07-24T04:35:28;93925.31;;;18.47;100.00
11345;BME280;5727;42.600;23.028;2023-07-24T04:37:54;93925.69;;;18.45;100.00
11345;BME280;5727;42.600;23.028;2023-07-24T04:40:22;93926.09;;;18.54;100.00
11345;BME280;5727;42.600;23.028;2023-07-24T04:42:49;93926.91;;;18.58;100.00
11345;BME280;5727;42.600;23.028;2023-07-24T04:45:18;93923.13;;;18.59;100.00
11345;BME280;5727;42.600;23.028;2023-07-24T04:47:46;93925.13;;;18.80;100.00
11345;BME280;5727;42.600;23.028;2023-07-24T04:50:12;93913.44;;;18.95;100.00
11345;BME280;5727;42.600;23.028;2023-07-24T04:52:40;93919.22;;;19.11;100.00
11345;BME280;5727;42.600;23.028;2023-07-24T04:55:07;93904.84;;;19.26;100.00
11345;BME280;5727;42.600;23.028;2023-07-24T04:57:34;93909.50;;;19.43;100.00
11345;BME280;5727;42.600;23.028;2023-07-24T05:00:01;93921.69;;;19.58;100.00
11345;BME280;5727;42.600;23.028;2023-07-24T05:02:27;93919.44;;;19.74;100.00
11345;BME280;5727;42.600;23.028;2023-07-24T05:04:54;93920.97;;;19.86;100.00
11345;BME280;5727;42.600;23.028;2023-07-24T05:07:21;93927.47;;;19.95;100.00
11345;BME280;5727;42.600;23.028;2023-07-24T05:09:49;93922.91;;;20.03;100.00
11345;BME280;5727;42.600;23.028;2023-07-24T05:12:16;93931.63;;;19.96;100.00
11345;BME280;5727;42.600;23.028;2023-07-24T05:14:42;93931.63;;;19.96;100.00
11345;BME280;5727;42.600;23.028;2023-07-24T05:17:09;93929.34;;;19.95;100.00
11345;BME280;5727;42.600;23.028;2023-07-24T05:19:36;93930.88;;;20.06;100.00
11345;BME280;5727;42.600;23.028;2023-07-24T05:22:03;93928.56;;;19.94;100.00
11345;BME280;5727;42.600;23.028;2023-07-24T05:24:30;93928.53;;;19.73;100.00
11345;BME280;5727;42.600;23.028;2023-07-24T05:26:58;93934.25;;;19.68;100.00
11345;BME280;5727;42.600;23.028;2023-07-24T05:29:25;93932.34;;;19.72;100.00
11345;BME280;5727;42.600;23.028;2023-07-24T05:31:51;93920.94;;;19.68;100.00
11345;BME280;5727;42.600;23.028;2023-07-24T05:34:18;93917.94;;;19.80;100.00
11345;BME280;5727;42.600;23.028;2023-07-24T05:36:45;93926.31;;;19.96;100.00
11345;BME280;5727;42.600;23.028;2023-07-24T05:39:11;93922.50;;;19.87;100.00
11345;BME280;5727;42.600;23.028;2023-07-24T05:41:38;93923.66;;;19.89;100.00
11345;BME280;5727;42.600;23.028;2023-07-24T05:44:06;93916.44;;;19.93;100.00
11345;BME280;5727;42.600;23.028;2023-07-24T05:46:33;93917.97;;;20.12;100.00
11345;BME280;5727;42.600;23.028;2023-07-24T05:49:00;93914.91;;;20.14;100.00
11345;BME280;5727;42.600;23.028;2023-07-24T05:51:27;93916.47;;;20.22;100.00
11345;BME280;5727;42.600;23.028;2023-07-24T05:53:54;93910.38;;;20.39;100.00
11345;BME280;5727;42.600;23.028;2023-07-24T05:56:20;93913.78;;;20.50;100.00
11345;BME280;5727;42.600;23.028;2023-07-24T05:58:47;93903.13;;;20.64;100.00
11345;BME280;5727;42.600;23.028;2023-07-24T06:01:15;93908.44;;;20.78;100.00
11345;BME280;5727;42.600;23.028;2023-07-24T06:03:42;93912.97;;;20.91;100.00
11345;BME280;5727;42.600;23.028;2023-07-24T06:06:09;93910.66;;;21.04;100.00
11345;BME280;5727;42.600;23.028;2023-07-24T06:08:35;93916.69;;;21.15;100.00
11345;BME280;5727;42.600;23.028;2023-07-24T06:11:02;93914.81;;;21.12;100.00
11345;BME280;5727;42.600;23.028;2023-07-24T06:13:29;93914.00;;;21.26;100.00
11345;BME280;5727;42.600;23.028;2023-07-24T06:15:56;93912.06;;;21.33;100.00
11345;BME280;5727;42.600;23.028;2023-07-24T06:18:24;93912.38;;;21.46;100.00
11345;BME280;5727;42.600;23.028;2023-07-24T06:20:52;93901.00;;;21.42;100.00
11345;BME280;5727;42.600;23.028;2023-07-24T06:23:19;93904.78;;;21.44;100.00
11345;BME280;5727;42.600;23.028;2023-07-24T06:25:46;93900.88;;;21.59;100.00
11345;BME280;5727;42.600;23.028;2023-07-24T06:28:13;93909.97;;;21.69;100.00
11345;BME280;5727;42.600;23.028;2023-07-24T06:30:39;93900.81;;;21.73;100.00
11345;BME280;5727;42.600;23.028;2023-07-24T06:33:06;93906.16;;;21.73;100.00
11345;BME280;5727;42.600;23.028;2023-07-24T06:35:34;93899.66;;;21.81;100.00
11345;BME280;5727;42.600;23.028;2023-07-24T06:38:01;93893.47;;;21.95;100.00
11345;BME280;5727;42.600;23.028;2023-07-24T06:40:28;93896.47;;;22.01;100.00
11345;BME280;5727;42.600;23.028;2023-07-24T06:42:55;93899.84;;;22.08;100.00
11345;BME280;5727;42.600;23.028;2023-07-24T06:45:21;93901.25;;;22.23;100.00
11345;BME280;5727;42.600;23.028;2023-07-24T06:47:48;93899.63;;;22.33;100.00
11345;BME280;5727;42.600;23.028;2023-07-24T06:50:15;93901.47;;;22.43;100.00
11345;BME280;5727;42.600;23.028;2023-07-24T06:52:43;93904.78;;;22.54;100.00
11345;BME280;5727;42.600;23.028;2023-07-24T06:55:10;93904.75;;;22.64;100.00
11345;BME280;5727;42.600;23.028;2023-07-24T06:57:36;93892.75;;;22.80;100.00
11345;BME280;5727;42.600;23.028;2023-07-24T07:00:04;93892.25;;;22.92;100.00
11345;BME280;5727;42.600;23.028;2023-07-24T07:02:31;93901.69;;;23.00;100.00
11345;BME280;5727;42.600;23.028;2023-07-24T07:04:58;93896.66;;;23.09;100.00
11345;BME280;5727;42.600;23.028;2023-07-24T07:07:25;93902.25;;;23.18;100.00
11345;BME280;5727;42.600;23.028;2023-07-24T07:09:53;93897.94;;;23.31;100.00
11345;BME280;5727;42.600;23.028;2023-07-24T07:12:20;93903.88;;;23.42;100.00
11345;BME280;5727;42.600;23.028;2023-07-24T07:14:47;93900.75;;;23.50;100.00
11345;BME280;5727;42.600;23.028;2023-07-24T07:17:13;93895.75;;;23.52;100.00
11345;BME280;5727;42.600;23.028;2023-07-24T07:19:40;93884.72;;;23.77;100.00
11345;BME280;5727;42.600;23.028;2023-07-24T07:22:07;93882.53;;;23.95;100.00
11345;BME280;5727;42.600;23.028;2023-07-24T07:24:34;93887.75;;;24.06;100.00
11345;BME280;5727;42.600;23.028;2023-07-24T07:27:02;93872.97;;;24.21;100.00
11345;BME280;5727;42.600;23.028;2023-07-24T07:29:29;93875.72;;;24.40;100.00
11345;BME280;5727;42.600;23.028;2023-07-24T07:31:56;93876.00;;;24.46;100.00
11345;BME280;5727;42.600;23.028;2023-07-24T07:34:23;93877.81;;;24.52;99.01
11345;BME280;5727;42.600;23.028;2023-07-24T07:36:50;93879.84;;;24.68;96.66
11345;BME280;5727;42.600;23.028;2023-07-24T07:39:17;93875.75;;;24.83;96.02
11345;BME280;5727;42.600;23.028;2023-07-24T07:41:44;93882.44;;;24.95;93.11
11345;BME280;5727;42.600;23.028;2023-07-24T07:44:12;93882.19;;;25.09;92.77
11345;BME280;5727;42.600;23.028;2023-07-24T07:46:38;93887.84;;;25.11;91.52
11345;BME280;5727;42.600;23.028;2023-07-24T07:49:05;93889.03;;;25.29;89.73
11345;BME280;5727;42.600;23.028;2023-07-24T07:51:32;93880.16;;;25.32;86.59
11345;BME280;5727;42.600;23.028;2023-07-24T07:53:59;93887.75;;;25.37;84.23
11345;BME280;5727;42.600;23.028;2023-07-24T07:56:25;93886.84;;;25.44;82.84
11345;BME280;5727;42.600;23.028;2023-07-24T07:58:52;93885.78;;;25.58;80.26
11345;BME280;5727;42.600;23.028;2023-07-24T08:01:21;93880.69;;;25.63;79.64
11345;BME280;5727;42.600;23.028;2023-07-24T08:03:47;93884.53;;;25.82;79.39
11345;BME280;5727;42.600;23.028;2023-07-24T08:06:14;93878.47;;;25.94;78.23
11345;BME280;5727;42.600;23.028;2023-07-24T08:08:41;93871.63;;;26.09;78.53
11345;BME280;5727;42.600;23.028;2023-07-24T08:11:07;93866.94;;;26.29;77.36
11345;BME280;5727;42.600;23.028;2023-07-24T08:13:34;93872.81;;;26.40;74.68
11345;BME280;5727;42.600;23.028;2023-07-24T08:16:01;93868.59;;;26.55;71.81
11345;BME280;5727;42.600;23.028;2023-07-24T08:18:30;93864.88;;;26.65;70.23
11345;BME280;5727;42.600;23.028;2023-07-24T08:20:57;93861.09;;;26.79;71.90
11345;BME280;5727;42.600;23.028;2023-07-24T08:23:23;93859.97;;;26.92;69.90
11345;BME280;5727;42.600;23.028;2023-07-24T08:25:53;93855.06;;;27.03;67.60
11345;BME280;5727;42.600;23.028;2023-07-24T08:28:20;93851.31;;;27.13;65.31
11345;BME280;5727;42.600;23.028;2023-07-24T08:30:56;93857.91;;;27.25;64.36
11345;BME280;5727;42.600;23.028;2023-07-24T08:33:23;93849.88;;;27.38;64.72
11345;BME280;5727;42.600;23.028;2023-07-24T08:35:59;93849.91;;;27.50;63.87
11345;BME280;5727;42.600;23.028;2023-07-24T08:38:26;93845.53;;;27.56;60.74
11345;BME280;5727;42.600;23.028;2023-07-24T08:41:00;93842.06;;;27.68;58.33
11345;BME280;5727;42.600;23.028;2023-07-24T08:43:27;93845.41;;;27.72;57.48
11345;BME280;5727;42.600;23.028;2023-07-24T08:45:55;93848.75;;;27.76;58.18
11345;BME280;5727;42.600;23.028;2023-07-24T08:48:22;93840.78;;;27.85;58.42
11345;BME280;5727;42.600;23.028;2023-07-24T08:50:50;93845.41;;;27.85;58.22
11345;BME280;5727;42.600;23.028;2023-07-24T08:53:21;93846.50;;;27.87;59.49
11345;BME280;5727;42.600;23.028;2023-07-24T08:55:48;93834.25;;;27.99;59.29
11345;BME280;5727;42.600;23.028;2023-07-24T08:58:15;93839.16;;;28.13;63.07
11345;BME280;5727;42.600;23.028;2023-07-24T09:00:42;93834.09;;;28.28;58.84
11345;BME280;5727;42.600;23.028;2023-07-24T09:03:09;93835.97;;;28.40;61.61
11345;BME280;5727;42.600;23.028;2023-07-24T09:05:36;93833.72;;;28.51;58.68
11345;BME280;5727;42.600;23.028;2023-07-24T09:08:03;93839.75;;;28.55;56.28
11345;BME280;5727;42.600;23.028;2023-07-24T09:10:31;93836.50;;;28.47;54.87
11345;BME280;5727;42.600;23.028;2023-07-24T09:12:57;93833.72;;;28.51;56.00
11345;BME280;5727;42.600;23.028;2023-07-24T09:15:24;93832.19;;;28.62;55.15
11345;BME280;5727;42.600;23.028;2023-07-24T09:17:52;93831.00;;;28.63;55.53
11345;BME280;5727;42.600;23.028;2023-07-24T09:20:20;93828.88;;;28.58;55.81
11345;BME280;5727;42.600;23.028;2023-07-24T09:22:50;93827.84;;;28.65;54.75
11345;BME280;5727;42.600;23.028;2023-07-24T09:25:17;93822.66;;;28.70;52.63
11345;BME280;5727;42.600;23.028;2023-07-24T09:27:45;93829.69;;;28.68;53.71
11345;BME280;5727;42.600;23.028;2023-07-24T09:30:12;93816.25;;;28.55;53.85
11345;BME280;5727;42.600;23.028;2023-07-24T09:32:40;93817.84;;;28.65;54.18
11345;BME280;5727;42.600;23.028;2023-07-24T09:35:16;93807.06;;;28.65;52.53
11345;BME280;5727;42.600;23.028;2023-07-24T09:37:43;93809.25;;;28.79;52.97
11345;BME280;5727;42.600;23.028;2023-07-24T09:40:11;93798.28;;;28.96;55.69
11345;BME280;5727;42.600;23.028;2023-07-24T09:42:38;93801.97;;;29.11;54.45
11345;BME280;5727;42.600;23.028;2023-07-24T09:45:11;93797.09;;;29.18;52.08
11345;BME280;5727;42.600;23.028;2023-07-24T09:47:39;93806.56;;;29.23;51.80
11345;BME280;5727;42.600;23.028;2023-07-24T09:50:07;93808.00;;;29.15;51.67
11345;BME280;5727;42.600;23.028;2023-07-24T09:52:36;93805.19;;;29.18;52.61
11345;BME280;5727;42.600;23.028;2023-07-24T09:55:11;93790.38;;;29.23;51.80
11345;BME280;5727;42.600;23.028;2023-07-24T09:57:39;93795.41;;;29.33;51.76
11345;BME280;5727;42.600;23.028;2023-07-24T10:00:08;93796.56;;;29.32;50.94
11345;BME280;5727;42.600;23.028;2023-07-24T10:02:36;93789.53;;;29.35;51.13
11345;BME280;5727;42.600;23.028;2023-07-24T10:05:03;93797.22;;;29.45;50.66
11345;BME280;5727;42.600;23.028;2023-07-24T10:07:31;93794.53;;;29.45;51.01
11345;BME280;5727;42.600;23.028;2023-07-24T10:09:58;93787.78;;;29.41;50.90
11345;BME280;5727;42.600;23.028;2023-07-24T10:12:25;93784.53;;;29.55;50.55
11345;BME280;5727;42.600;23.028;2023-07-24T10:14:55;93779.91;;;29.64;50.87
11345;BME280;5727;42.600;23.028;2023-07-24T10:17:40;93772.63;;;29.74;51.38
11345;BME280;5727;42.600;23.028;2023-07-24T10:20:09;93767.88;;;29.87;51.52
11345;BME280;5727;42.600;23.028;2023-07-24T10:22:36;93784.72;;;29.91;51.03
11345;BME280;5727;42.600;23.028;2023-07-24T10:25:08;93769.66;;;29.81;49.46
11345;BME280;5727;42.600;23.028;2023-07-24T10:27:35;93764.88;;;29.85;49.17
11345;BME280;5727;42.600;23.028;2023-07-24T10:30:04;93762.78;;;29.89;50.33
11345;BME280;5727;42.600;23.028;2023-07-24T10:32:32;93770.31;;;30.03;50.67
11345;BME280;5727;42.600;23.028;2023-07-24T10:35:07;93766.72;;;30.24;49.64
11345;BME280;5727;42.600;23.028;2023-07-24T10:37:35;93761.69;;;30.35;48.93
11345;BME280;5727;42.600;23.028;2023-07-24T10:40:03;93767.53;;;30.52;48.96
11345;BME280;5727;42.600;23.028;2023-07-24T10:42:32;93764.25;;;30.39;46.96
11345;BME280;5727;42.600;23.028;2023-07-24T10:45:06;93754.91;;;30.31;47.52
11345;BME280;5727;42.600;23.028;2023-07-24T10:47:33;93748.13;;;30.26;46.83
11345;BME280;5727;42.600;23.028;2023-07-24T10:50:02;93755.38;;;30.47;47.38
11345;BME280;5727;42.600;23.028;2023-07-24T10:52:29;93749.97;;;30.65;46.67
11345;BME280;5727;42.600;23.028;2023-07-24T10:54:56;93755.97;;;30.88;47.02
11345;BME280;5727;42.600;23.028;2023-07-24T10:57:26;93748.28;;;30.95;44.98
11345;BME280;5727;42.600;23.028;2023-07-24T10:59:53;93745.00;;;31.00;44.47
11345;BME280;5727;42.600;23.028;2023-07-24T11:02:20;93739.09;;;31.11;45.14
11345;BME280;5727;42.600;23.028;2023-07-24T11:04:47;93743.88;;;31.25;44.43
11345;BME280;5727;42.600;23.028;2023-07-24T11:07:15;93732.19;;;31.10;44.13
11345;BME280;5727;42.600;23.028;2023-07-24T11:09:42;93727.63;;;31.25;44.10
11345;BME280;5727;42.600;23.028;2023-07-24T11:12:14;93724.31;;;31.39;43.29
11345;BME280;5727;42.600;23.028;2023-07-24T11:14:50;93720.78;;;31.47;44.13
11345;BME280;5727;42.600;23.028;2023-07-24T11:17:19;93717.19;;;31.50;44.15
11345;BME280;5727;42.600;23.028;2023-07-24T11:19:46;93716.00;;;31.42;42.73
11345;BME280;5727;42.600;23.028;2023-07-24T11:22:15;93723.38;;;31.33;43.92
11345;BME280;5727;42.600;23.028;2023-07-24T11:24:47;93713.84;;;31.05;43.30
11345;BME280;5727;42.600;23.028;2023-07-24T11:27:15;93705.38;;;31.21;44.83
11345;BME280;5727;42.600;23.028;2023-07-24T11:29:47;93715.84;;;31.46;43.88
11345;BME280;5727;42.600;23.028;2023-07-24T11:32:17;93716.31;;;31.44;44.08
11345;BME280;5727;42.600;23.028;2023-07-24T11:34:44;93707.38;;;31.53;45.05
11345;BME280;5727;42.600;23.028;2023-07-24T11:37:12;93701.97;;;31.53;45.11
11345;BME280;5727;42.600;23.028;2023-07-24T11:39:40;93703.75;;;31.56;46.25
11345;BME280;5727;42.600;23.028;2023-07-24T11:42:07;93699.53;;;32.11;42.95
11345;BME280;5727;42.600;23.028;2023-07-24T11:44:34;93694.13;;;32.50;40.78
11345;BME280;5727;42.600;23.028;2023-07-24T11:47:02;93691.25;;;32.82;40.81
11345;BME280;5727;42.600;23.028;2023-07-24T11:49:29;93701.19;;;33.29;39.03
11345;BME280;5727;42.600;23.028;2023-07-24T11:52:01;93696.88;;;34.92;35.63
11345;BME280;5727;42.600;23.028;2023-07-24T11:54:29;93688.38;;;37.35;30.90
11345;BME280;5727;42.600;23.028;2023-07-24T11:57:02;93682.25;;;38.82;27.37
11345;BME280;5727;42.600;23.028;2023-07-24T11:59:40;93696.53;;;39.10;26.91
11345;BME280;5727;42.600;23.028;2023-07-24T12:02:09;93701.34;;;38.93;26.81
11345;BME280;5727;42.600;23.028;2023-07-24T12:04:37;93692.56;;;37.86;27.42
11345;BME280;5727;42.600;23.028;2023-07-24T12:07:07;93685.75;;;38.77;26.20
11345;BME280;5727;42.600;23.028;2023-07-24T12:09:34;93677.78;;;40.65;24.20
11345;BME280;5727;42.600;23.028;2023-07-24T12:12:03;93671.22;;;41.95;22.98
11345;BME280;5727;42.600;23.028;2023-07-24T12:14:30;93682.38;;;42.28;22.18
11345;BME280;5727;42.600;23.028;2023-07-24T12:17:01;93666.34;;;42.01;22.66
11345;BME280;5727;42.600;23.028;2023-07-24T12:19:28;93664.53;;;41.77;22.91
11345;BME280;5727;42.600;23.028;2023-07-24T12:21:55;93667.91;;;42.74;21.14
11345;BME280;5727;42.600;23.028;2023-07-24T12:24:21;93663.09;;;42.41;21.47
11345;BME280;5727;42.600;23.028;2023-07-24T12:26:48;93660.66;;;42.85;20.99
11345;BME280;5727;42.600;23.028;2023-07-24T12:29:17;93653.09;;;40.96;22.58
11345;BME280;5727;42.600;23.028;2023-07-24T12:31:43;93659.34;;;40.60;22.79
11345;BME280;5727;42.600;23.028;2023-07-24T12:34:10;93663.56;;;40.98;22.09
11345;BME280;5727;42.600;23.028;2023-07-24T12:36:37;93669.34;;;41.45;21.87
11345;BME280;5727;42.600;23.028;2023-07-24T12:39:03;93664.88;;;40.78;22.56
11345;BME280;5727;42.600;23.028;2023-07-24T12:41:31;93648.59;;;41.31;21.98
11345;BME280;5727;42.600;23.028;2023-07-24T12:43:58;93649.31;;;41.76;21.42
11345;BME280;5727;42.600;23.028;2023-07-24T12:46:26;93641.50;;;41.35;21.43
11345;BME280;5727;42.600;23.028;2023-07-24T12:48:53;93639.91;;;42.24;21.17
11345;BME280;5727;42.600;23.028;2023-07-24T12:51:19;93644.75;;;43.73;19.76
11345;BME280;5727;42.600;23.028;2023-07-24T12:53:47;93655.59;;;43.50;18.67
11345;BME280;5727;42.600;23.028;2023-07-24T12:56:13;93641.69;;;42.34;19.00
11345;BME280;5727;42.600;23.028;2023-07-24T12:58:40;93644.72;;;41.08;16.55